Time;durP1;ratioP1;P1;durP2;ratioP2;P2;SDS_P1;SDS_P2;PMS_P1;PMS_P2;Temp;Humidity;BMP_temperature;BMP_pressure;BME280_temperature;BME280_humidity;BME280_pressure;Samples;Min_cycle;Max_cycle;Signal;HPM_P1;HPM_P2
2022/07/11 15:50:20;;;;;;;2.88;0.70;;;;;;;24.18;58.11;102373.97;5091028;27;20897;-36
2022/07/11 15:52:45;;;;;;;2.55;0.73;;;;;;;24.04;58.83;102375.72;5089162;28;20044;-37
2022/07/11 15:55:11;;;;;;;1.60;0.65;;;;;;;23.81;58.87;102375.28;5090392;28;20024;-37
2022/07/11 15:57:36;;;;;;;1.13;0.60;;;;;;;23.69;59.00;102365.69;5090187;28;20032;-36
2022/07/11 16:00:05;;;;;;;3.88;1.25;;;;;;;23.65;59.98;102365.41;5090821;28;20058;-36
2022/07/11 16:02:31;;;;;;;1.08;0.50;;;;;;;23.70;60.97;102379.19;5089254;28;20127;-37
2022/07/11 16:04:57;;;;;;;1.90;0.70;;;;;;;23.64;59.58;102370.13;5090726;28;20056;-36
2022/07/11 16:07:23;;;;;;;2.45;0.70;;;;;;;23.45;57.58;102362.72;5089985;28;20039;-37
2022/07/11 16:09:48;;;;;;;2.38;0.50;;;;;;;23.43;59.02;102359.41;5090658;28;20032;-37
2022/07/11 16:12:13;;;;;;;0.82;0.57;;;;;;;23.48;59.29;102367.69;5090660;28;20032;-37
2022/07/11 16:14:39;;;;;;;2.15;0.70;;;;;;;23.33;58.81;102352.81;5089875;28;20374;-37
2022/07/11 16:17:04;;;;;;;2.38;0.68;;;;;;;23.35;60.18;102358.03;5090634;28;20430;-38
2022/07/11 16:19:31;;;;;;;1.00;0.60;;;;;;;23.26;59.40;102355.03;5090024;28;20032;-37
2022/07/11 16:21:59;;;;;;;0.85;0.55;;;;;;;23.18;59.28;102350.09;5089987;28;20465;-37
2022/07/11 16:24:25;;;;;;;2.85;0.63;;;;;;;23.22;61.06;102348.41;5089720;28;20039;-37
2022/07/11 16:26:50;;;;;;;3.03;0.60;;;;;;;23.12;60.25;102368.56;5090703;28;20036;-37
2022/07/11 16:29:15;;;;;;;1.05;0.50;;;;;;;23.05;60.90;102372.75;5089764;28;20350;-38
2022/07/11 16:31:41;;;;;;;0.88;0.50;;;;;;;22.98;60.06;102355.63;5089798;28;20024;-36
2022/07/11 16:34:06;;;;;;;0.50;0.43;;;;;;;23.08;59.24;102355.59;5090382;28;20032;-36
2022/07/11 16:36:32;;;;;;;1.23;0.43;;;;;;;23.11;59.41;102361.41;5089852;28;20032;-36
2022/07/11 16:44:24;;;;;;;0.70;0.30;;;;;;;22.61;59.13;102346.53;5089648;28;20031;-37
2022/07/11 16:46:50;;;;;;;0.73;0.40;;;;;;;22.63;60.22;102354.53;5090338;28;20032;-36
2022/07/11 16:49:15;;;;;;;1.17;0.47;;;;;;;22.73;60.93;102360.03;5089636;28;20160;-37
2022/07/11 16:51:40;;;;;;;1.70;0.50;;;;;;;22.69;60.76;102345.13;5089434;28;20039;-37
2022/07/11 16:54:06;;;;;;;2.60;0.40;;;;;;;22.75;61.29;102357.84;5089348;28;20051;-36
2022/07/11 16:56:31;;;;;;;0.65;0.50;;;;;;;22.72;61.34;102346.53;5089885;28;20073;-37
2022/07/11 16:58:57;;;;;;;8.68;0.88;;;;;;;22.63;61.25;102344.31;5087942;28;20376;-36
2022/07/11 17:01:23;;;;;;;0.88;0.50;;;;;;;22.64;61.75;102345.16;5077681;28;20036;-36
2022/07/11 17:03:49;;;;;;;1.83;0.80;;;;;;;22.63;61.33;102336.06;5075343;28;20496;-36
2022/07/11 17:06:15;;;;;;;2.67;0.70;;;;;;;22.60;61.52;102339.38;5075872;28;20054;-36
2022/07/11 17:08:43;;;;;;;0.98;0.60;;;;;;;22.68;60.79;102346.25;5075938;28;20028;-36
2022/07/11 17:11:09;;;;;;;1.80;0.30;;;;;;;22.66;59.69;102345.72;5075963;28;20107;-38
2022/07/11 17:13:34;;;;;;;0.80;0.30;;;;;;;22.57;60.12;102341.84;5075502;28;20110;-37
2022/07/11 17:16:00;;;;;;;0.50;0.30;;;;;;;22.52;60.20;102339.09;5075727;28;20434;-38
2022/07/11 17:18:26;;;;;;;0.80;0.40;;;;;;;22.51;60.62;102331.94;5075875;28;20040;-37
2022/07/11 17:20:51;;;;;;;0.43;0.20;;;;;;;22.46;59.92;102334.69;5075501;28;20538;-37
2022/07/11 17:23:18;;;;;;;23.80;1.58;;;;;;;22.46;60.92;102332.75;5074738;28;20041;-37
2022/07/11 17:25:44;;;;;;;0.90;0.38;;;;;;;22.32;58.95;102337.97;5075090;28;20058;-38
2022/07/11 17:28:13;;;;;;;3.15;0.30;;;;;;;22.32;59.70;102335.22;5076103;28;20024;-38
2022/07/11 17:30:39;;;;;;;0.80;0.28;;;;;;;22.34;60.29;102330.25;5074335;28;20044;-37
2022/07/11 17:33:04;;;;;;;0.50;0.38;;;;;;;22.35;59.98;102336.59;5075589;28;20423;-37
2022/07/11 17:35:29;;;;;;;0.88;0.30;;;;;;;22.20;60.08;102323.63;5073810;28;20080;-38
2022/07/11 17:37:56;;;;;;;1.60;0.43;;;;;;;22.26;61.52;102338.25;5075326;28;20030;-37
2022/07/11 17:40:22;;;;;;;0.47;0.40;;;;;;;22.31;61.17;102335.50;5075107;28;20033;-38
2022/07/11 17:42:47;;;;;;;2.05;0.40;;;;;;;22.29;61.65;102337.69;5075999;28;20032;-38
2022/07/11 17:45:14;;;;;;;1.20;0.35;;;;;;;22.33;61.08;102339.63;5075280;28;20455;-37
2022/07/11 17:47:40;;;;;;;0.60;0.30;;;;;;;22.30;60.80;102348.47;5074798;28;20496;-38
2022/07/11 17:50:09;;;;;;;0.57;0.30;;;;;;;22.22;62.61;102337.16;5075196;28;20076;-37
2022/07/11 17:52:36;;;;;;;3.15;0.40;;;;;;;22.25;62.73;102351.22;5075362;28;20033;-38
2022/07/11 17:55:02;;;;;;;0.73;0.30;;;;;;;22.22;62.84;102337.16;5074977;28;20033;-37
2022/07/11 17:57:27;;;;;;;0.40;0.30;;;;;;;22.25;62.39;102334.69;5075565;28;20090;-37
2022/07/11 17:59:53;;;;;;;0.75;0.30;;;;;;;22.27;62.89;102343.50;5074297;28;20374;-38
2022/07/11 18:02:18;;;;;;;3.60;0.57;;;;;;;22.22;61.88;102340.72;5074831;28;20129;-36
2022/07/11 18:04:43;;;;;;;0.45;0.30;;;;;;;22.17;62.93;102329.69;5075228;28;20039;-37
2022/07/11 18:07:09;;;;;;;0.77;0.30;;;;;;;22.31;62.39;102346.53;5074566;28;20431;-37
2022/07/11 18:09:34;;;;;;;0.70;0.50;;;;;;;22.30;62.36;102345.69;5074381;28;20060;-38
2022/07/11 18:12:02;;;;;;;1.35;0.68;;;;;;;22.29;63.24;102344.03;5073456;28;20082;-37
2022/07/11 18:14:28;;;;;;;0.90;0.52;;;;;;;22.18;63.48;102336.84;5073994;28;20021;-37
2022/07/11 18:16:53;;;;;;;2.00;0.60;;;;;;;22.07;62.92;102335.16;5074461;28;20020;-37
2022/07/11 18:19:18;;;;;;;0.75;0.47;;;;;;;22.19;63.99;102344.00;5074609;28;20440;-37
2022/07/11 18:21:44;;;;;;;0.82;0.30;;;;;;;22.13;63.98;102353.38;5074861;28;20059;-37
2022/07/11 18:24:09;;;;;;;2.95;0.50;;;;;;;22.10;64.10;102356.63;5074060;28;20028;-37
2022/07/11 18:26:34;;;;;;;1.63;0.50;;;;;;;22.09;64.83;102354.97;5074304;28;20388;-37
2022/07/11 18:29:00;;;;;;;2.65;0.38;;;;;;;22.02;65.28;102343.41;5074174;28;20029;-36
2022/07/11 18:31:25;;;;;;;1.15;0.43;;;;;;;22.09;65.03;102354.97;5073689;28;20096;-37
2022/07/11 18:33:50;;;;;;;1.27;0.40;;;;;;;22.07;66.10;102351.69;5074173;28;20039;-37
2022/07/11 18:36:16;;;;;;;0.93;0.43;;;;;;;22.06;66.70;102348.09;5073710;28;20469;-36
2022/07/11 18:41:25;;;;;;;1.27;0.50;;;;;;;21.99;65.71;102335.69;5074001;28;20039;-37
2022/07/11 18:44:01;;;;;;;0.82;0.30;;;;;;;21.90;65.35;102337.31;5072489;28;20400;-36
2022/07/11 18:46:26;;;;;;;0.68;0.30;;;;;;;21.83;65.62;102327.38;5074346;28;20047;-36
2022/07/11 18:48:54;;;;;;;2.10;0.35;;;;;;;21.83;66.51;102330.13;5073788;28;20044;-37
2022/07/11 18:51:20;;;;;;;0.70;0.32;;;;;;;21.83;66.67;102335.66;5073533;28;20028;-36
2022/07/11 18:53:46;;;;;;;1.65;0.40;;;;;;;21.80;67.75;102335.34;5073700;28;20025;-37
2022/07/11 18:56:12;;;;;;;0.55;0.40;;;;;;;21.79;66.65;102337.28;5073839;28;20134;-37
2022/07/11 18:58:37;;;;;;;1.23;0.50;;;;;;;21.70;65.94;102322.38;5073504;28;20093;-37
2022/07/11 19:01:02;;;;;;;1.13;0.50;;;;;;;21.68;65.71;102319.09;5073404;28;20024;-37
2022/07/11 19:03:28;;;;;;;1.58;0.50;;;;;;;21.72;67.09;102328.47;5073217;28;20033;-37
2022/07/11 19:05:53;;;;;;;1.33;0.50;;;;;;;21.67;66.54;102331.19;5072203;28;20424;-36
2022/07/11 19:08:19;;;;;;;3.50;0.55;;;;;;;21.59;68.36;102323.44;5073239;28;20472;-36
2022/07/11 19:10:45;;;;;;;1.42;0.52;;;;;;;21.63;68.38;102329.25;5073888;28;20058;-36
2022/07/11 19:13:10;;;;;;;1.75;0.40;;;;;;;21.54;68.86;102332.50;5073464;28;20122;-42
2022/07/11 19:15:35;;;;;;;1.17;0.60;;;;;;;21.48;69.01;102333.59;5072946;28;20460;-36
2022/07/11 19:18:01;;;;;;;1.38;0.50;;;;;;;21.37;69.41;102337.38;5073484;28;20412;-36
2022/07/11 19:20:26;;;;;;;2.45;0.63;;;;;;;21.25;69.23;102329.31;5054704;28;20507;-37
2022/07/11 19:22:52;;;;;;;1.15;0.40;;;;;;;21.21;68.71;102330.94;5072381;28;20025;-37
2022/07/11 19:25:17;;;;;;;1.02;0.50;;;;;;;21.24;69.31;102346.09;5072980;28;20033;-36
2022/07/11 19:27:42;;;;;;;1.35;0.50;;;;;;;21.24;68.75;102344.16;5073386;28;20020;-36
2022/07/11 19:30:10;;;;;;;3.20;0.80;;;;;;;21.13;69.74;102349.84;5073016;28;20033;-37
2022/07/11 19:32:35;;;;;;;0.68;0.35;;;;;;;21.05;70.09;102345.69;5073194;28;20028;-36
2022/07/11 19:35:00;;;;;;;1.55;0.50;;;;;;;20.90;69.60;102337.34;5073492;28;20115;-37
2022/07/11 19:37:25;;;;;;;2.83;0.50;;;;;;;20.86;70.43;102359.03;5073002;28;20066;-37
2022/07/11 19:39:51;;;;;;;1.13;0.60;;;;;;;20.82;70.06;102360.66;5072621;28;20085;-37
2022/07/11 19:42:17;;;;;;;1.90;0.40;;;;;;;20.75;71.24;102360.06;5072950;28;20031;-36
2022/07/11 19:44:42;;;;;;;1.27;0.43;;;;;;;20.69;70.64;102361.09;5071464;28;20428;-37
2022/07/11 19:47:08;;;;;;;1.02;0.50;;;;;;;20.75;70.06;102369.13;5072913;28;20103;-37
2022/07/11 19:49:33;;;;;;;1.30;0.68;;;;;;;20.71;70.56;102367.16;5073157;28;20484;-37
2022/07/11 19:51:58;;;;;;;2.63;0.90;;;;;;;20.65;70.96;102376.47;5073121;28;20059;-37
2022/07/11 19:57:23;;;;;;;1.58;0.57;;;;;;;20.54;71.64;102370.84;5072943;28;20071;-36
2022/07/11 19:59:50;;;;;;;1.65;0.60;;;;;;;20.40;72.22;102366.00;5072733;28;20457;-37
2022/07/11 20:02:15;;;;;;;1.77;0.80;;;;;;;20.36;72.77;102378.63;5072449;28;20085;-37
2022/07/11 20:04:40;;;;;;;0.98;0.60;;;;;;;20.40;72.89;102377.84;5073087;28;20115;-37
2022/07/11 20:07:06;;;;;;;2.28;0.63;;;;;;;20.33;72.63;102378.06;5072446;28;20036;-37
2022/07/11 20:09:32;;;;;;;3.40;0.55;;;;;;;20.22;73.64;102384.53;5072932;28;20051;-37
2022/07/11 20:11:58;;;;;;;1.88;0.73;;;;;;;20.16;73.82;102377.34;5073251;28;20032;-37
2022/07/11 20:14:23;;;;;;;1.63;0.70;;;;;;;20.12;73.91;102381.69;5072207;28;20472;-37
2022/07/11 20:16:49;;;;;;;0.73;0.50;;;;;;;20.04;73.42;102371.16;5072950;28;20031;-37
2022/07/11 20:19:15;;;;;;;3.88;0.57;;;;;;;19.97;74.44;102373.28;5072580;28;20178;-37
2022/07/11 20:21:40;;;;;;;7.00;1.25;;;;;;;20.01;74.52;102378.00;5073216;28;20434;-37
2022/07/11 20:24:06;;;;;;;4.15;1.00;;;;;;;20.01;74.04;102388.97;5072582;28;20028;-37
2022/07/11 20:26:31;;;;;;;1.48;0.63;;;;;;;19.94;74.75;102390.25;5072548;28;20452;-37
2022/07/11 20:28:57;;;;;;;1.08;0.55;;;;;;;19.88;75.31;102391.28;5072382;28;20025;-37
2022/07/11 20:31:23;;;;;;;2.00;0.60;;;;;;;19.92;75.46;102389.69;5072937;28;20055;-37
2022/07/11 20:33:48;;;;;;;4.70;0.80;;;;;;;19.74;75.77;102380.69;5072519;28;20072;-37
2022/07/11 20:36:13;;;;;;;1.50;0.60;;;;;;;19.68;75.16;102387.19;5074501;28;20051;-37
2022/07/11 20:38:39;;;;;;;1.40;0.70;;;;;;;19.69;75.81;102409.97;5076047;28;20067;-37
2022/07/11 20:41:05;;;;;;;3.50;0.90;;;;;;;19.60;76.72;102416.97;5076665;28;20032;-37
2022/07/11 20:43:31;;;;;;;2.40;0.70;;;;;;;19.53;76.94;102419.88;5076101;28;20028;-37
2022/07/11 20:45:56;;;;;;;;;;;;;;;19.71;74.30;102413.28;5076571;28;20035;-36
2022/07/11 20:48:21;;;;;;;3.78;0.82;;;;;;;19.42;76.58;102404.34;5076416;28;20015;-36
2022/07/11 20:50:47;;;;;;;1.40;0.93;;;;;;;19.44;76.53;102419.50;5076041;28;20059;-37
2022/07/11 20:53:12;;;;;;;5.70;1.00;;;;;;;19.42;77.36;102415.31;5091446;28;20096;-38
2022/07/11 20:55:40;;;;;;;2.33;0.95;;;;;;;19.32;77.60;102415.19;5074584;28;20036;-37
2022/07/11 20:58:06;;;;;;;2.50;1.00;;;;;;;19.30;77.66;102419.00;5076128;28;20063;-37
2022/07/11 21:00:31;;;;;;;;;;;;;;;19.45;75.77;102423.06;5076700;28;20052;-37
2022/07/11 21:02:56;;;;;;;3.77;1.03;;;;;;;19.19;77.21;102430.09;5076312;28;19916;-37
2022/07/11 21:05:21;;;;;;;;;;;;;;;19.33;75.30;102420.44;5076503;28;20275;-37
2022/07/11 21:07:47;;;;;;;1.83;1.00;;;;;;;19.14;77.65;102425.34;5076045;28;20349;-37
2022/07/11 21:10:13;;;;;;;1.90;1.10;;;;;;;19.07;78.61;102427.41;5075524;28;20115;-37
2022/07/11 21:12:38;;;;;;;1.98;1.17;;;;;;;19.02;79.26;102433.63;5075295;28;20035;-37
2022/07/11 21:15:04;;;;;;;;;;;;;;;19.17;76.48;102430.31;5075666;28;20020;-37
2022/07/11 21:17:29;;;;;;;1.67;1.10;;;;;;;18.96;79.86;102431.06;5075937;28;19909;-37
2022/07/11 21:19:55;;;;;;;2.92;1.02;;;;;;;18.87;80.48;102418.84;5075843;28;20449;-37
2022/07/11 21:22:20;;;;;;;3.28;1.30;;;;;;;18.72;80.90;102403.00;5075879;28;20110;-37
2022/07/11 21:24:45;;;;;;;;;;;;;;;19.03;77.90;102426.25;5075564;28;20468;-36
2022/07/11 21:27:10;;;;;;;2.90;1.30;;;;;;;18.80;80.44;102430.00;5075769;28;20004;-36
2022/07/11 21:29:36;;;;;;;1.70;1.10;;;;;;;18.80;80.92;102429.16;5075168;28;20532;-36
2022/07/11 21:32:01;;;;;;;4.05;1.20;;;;;;;18.78;80.72;102435.69;5075784;28;20032;-36
2022/07/11 21:34:26;;;;;;;3.35;1.30;;;;;;;18.72;81.07;102433.97;5075099;28;20023;-36
2022/07/11 21:36:52;;;;;;;;;;;;;;;18.92;78.52;102429.91;5076264;28;20067;-36
2022/07/11 21:39:17;;;;;;;2.40;1.35;;;;;;;18.66;81.52;102426.69;5075266;28;19908;-36
2022/07/11 21:41:42;;;;;;;;;;;;;;;18.88;78.92;102437.78;5075219;28;20143;-36
2022/07/11 21:44:08;;;;;;;3.45;1.30;;;;;;;18.65;82.30;102438.75;5075100;28;19912;-36
2022/07/11 21:46:33;;;;;;;;;;;;;;;18.84;78.99;102441.25;5075253;28;20520;-37
2022/07/11 21:48:58;;;;;;;2.10;1.10;;;;;;;18.61;82.47;102434.81;5074789;28;20249;-36
2022/07/11 21:51:24;;;;;;;1.60;1.02;;;;;;;18.58;82.28;102438.06;5075187;28;20025;-36
2022/07/11 21:53:49;;;;;;;2.95;1.17;;;;;;;18.57;82.39;102441.88;5075537;28;20063;-36
2022/07/11 21:56:14;;;;;;;2.05;1.20;;;;;;;18.64;82.04;102439.81;5075134;28;20060;-36
2022/07/11 21:58:39;;;;;;;2.05;1.27;;;;;;;18.53;82.40;102435.22;5073401;28;20032;-36
2022/07/11 22:01:05;;;;;;;1.70;1.05;;;;;;;18.37;83.03;102425.06;5074914;28;20074;-36
2022/07/11 22:03:30;;;;;;;;;;;;;;;18.64;80.36;102445.31;5075295;28;20032;-36
2022/07/11 22:05:55;;;;;;;2.30;1.43;;;;;;;18.44;83.09;102447.63;5074709;28;20286;-36
2022/07/11 22:08:21;;;;;;;;;;;;;;;18.56;80.61;102445.69;5075145;28;20774;-36
2022/07/11 22:10:46;;;;;;;5.13;1.27;;;;;;;18.36;83.79;102448.06;5089843;28;19912;-36
2022/07/11 22:13:11;;;;;;;4.10;1.33;;;;;;;18.36;83.86;102456.28;5074605;28;20020;-36
2022/07/11 22:15:37;;;;;;;3.85;1.30;;;;;;;18.22;84.22;102442.84;5074267;28;20105;-36
2022/07/11 22:18:02;;;;;;;;;;;;;;;18.43;81.72;102457.78;5075075;28;20032;-36
2022/07/11 22:20:27;;;;;;;2.43;1.30;;;;;;;18.22;84.30;102455.72;5074252;28;20367;-36
2022/07/11 22:22:52;;;;;;;;;;;;;;;18.39;81.56;102461.25;5074956;28;20642;-36
2022/07/11 22:25:18;;;;;;;3.27;1.40;;;;;;;18.17;84.33;102459.19;5074374;28;19931;-36
2022/07/11 22:27:43;;;;;;;;;;;;;;;18.32;81.89;102455.09;5074868;28;20262;-36
2022/07/11 22:30:09;;;;;;;3.13;1.20;;;;;;;18.03;84.80;102446.84;5073956;28;19912;-36
2022/07/11 22:32:34;;;;;;;;;;;;;;;18.24;81.99;102459.03;5074966;28;20595;-36
2022/07/11 22:34:59;;;;;;;3.40;1.50;;;;;;;17.99;84.54;102438.28;5074023;28;20233;-37
2022/07/11 22:37:24;;;;;;;;;;;;;;;18.13;81.82;102444.31;5074411;28;20032;-36
2022/07/11 22:39:50;;;;;;;7.30;1.83;;;;;;;18.02;84.59;102456.13;5073612;28;20024;-36
2022/07/11 22:42:15;;;;;;;;;;;;;;;18.13;82.41;102447.03;5074147;28;20287;-36
2022/07/11 22:44:40;;;;;;;2.70;1.27;;;;;;;17.88;84.91;102430.09;5073741;28;19909;-37
2022/07/11 22:47:07;;;;;;;2.20;1.10;;;;;;;17.90;85.33;102449.84;5073551;28;20031;-37
2022/07/11 22:49:32;;;;;;;2.05;1.05;;;;;;;17.85;85.47;102444.25;5072268;28;20455;-37
2022/07/11 22:51:57;;;;;;;;;;;;;;;17.99;82.99;102446.47;5072786;28;20130;-37
2022/07/11 22:54:23;;;;;;;2.17;1.10;;;;;;;17.80;85.29;102450.44;5073922;28;19953;-36
2022/07/11 22:56:48;;;;;;;;;;;;;;;17.93;82.70;102438.41;5074581;28;20094;-36
2022/07/11 22:59:13;;;;;;;1.63;0.90;;;;;;;17.62;85.22;102434.16;5073319;28;19991;-36
2022/07/11 23:01:38;;;;;;;;;;;;;;;17.84;82.99;102439.88;5074203;28;20461;-36
2022/07/11 23:04:04;;;;;;;2.22;1.13;;;;;;;17.60;85.95;102437.13;5073890;28;19908;-36
2022/07/11 23:06:29;;;;;;;;;;;;;;;17.79;83.16;102434.28;5074135;28;20035;-36
2022/07/11 23:08:54;;;;;;;3.47;1.27;;;;;;;17.58;86.07;102443.91;5073676;28;19960;-36
2022/07/11 23:11:19;;;;;;;;;;;;;;;17.71;83.43;102447.25;5074353;28;20107;-36
2022/07/11 23:13:45;;;;;;;1.60;1.27;;;;;;;17.53;86.16;102441.91;5073800;28;20264;-36
2022/07/11 23:16:11;;;;;;;;;;;;;;;17.65;83.61;102436.41;5074150;28;20028;-36
2022/07/11 23:18:36;;;;;;;2.60;1.00;;;;;;;17.46;86.36;102439.25;5073291;28;20007;-36
2022/07/11 23:21:01;;;;;;;;;;;;;;;17.60;83.80;102441.75;5073502;28;20101;-36
2022/07/11 23:23:27;;;;;;;2.65;0.98;;;;;;;17.35;86.53;102434.66;5073205;28;20312;-36
2022/07/11 23:25:52;;;;;;;;;;;;;;;17.50;83.89;102436.91;5073649;28;20107;-36
2022/07/11 23:28:17;;;;;;;3.43;1.40;;;;;;;17.29;86.72;102432.88;5073043;28;19996;-36
2022/07/11 23:30:42;;;;;;;;;;;;;;;17.43;83.76;102437.03;5073819;28;20046;-36
2022/07/11 23:33:08;;;;;;;3.30;1.15;;;;;;;17.22;86.96;102422.03;5072556;28;19908;-36
2022/07/11 23:35:33;;;;;;;;;;;;;;;17.38;84.38;102431.44;5073526;28;20035;-35
2022/07/11 23:37:58;;;;;;;1.73;1.00;;;;;;;17.14;86.85;102433.34;5073033;28;20106;-36
2022/07/11 23:40:24;;;;;;;;;;;;;;;17.30;84.57;102430.97;5073473;28;20032;-36
2022/07/11 23:42:49;;;;;;;4.17;1.30;;;;;;;17.13;87.30;102415.28;5072997;28;19908;-36
2022/07/11 23:45:14;;;;;;;;;;;;;;;17.25;84.80;102418.84;5073874;28;20266;-36
2022/07/11 23:47:40;;;;;;;1.83;1.40;;;;;;;17.02;88.06;102418.81;5072944;28;19913;-35
2022/07/11 23:50:05;;;;;;;;;;;;;;;17.16;85.32;102414.78;5071915;28;20298;-36
2022/07/11 23:52:31;;;;;;;2.42;1.42;;;;;;;16.93;88.75;102417.47;5073116;28;19916;-36
2022/07/11 23:54:57;;;;;;;4.22;1.60;;;;;;;16.90;88.47;102420.72;5073109;28;20028;-37
2022/07/11 23:57:22;;;;;;;;;;;;;;;17.07;86.25;102429.03;5073274;28;20552;-36
2022/07/11 23:59:48;;;;;;;3.97;1.70;;;;;;;16.90;88.25;102420.72;5073047;28;19918;-36
